createdAt,value
2017-12-30T12:20:26.179Z,2.73
2017-12-30T12:23:03.779Z,6.47
2017-12-30T12:25:31.316Z,2.57
2017-12-30T12:27:59.587Z,3.27
2017-12-30T12:30:27.890Z,4.23
2017-12-30T12:32:55.409Z,2.63
2017-12-30T12:35:22.935Z,3.60
2017-12-30T12:37:50.444Z,3.57
2017-12-30T12:40:18.736Z,3.17
2017-12-30T12:42:46.244Z,5.33
2017-12-30T12:45:13.781Z,4.87
2017-12-30T12:47:41.303Z,4.53
2017-12-30T12:50:08.846Z,4.17
2017-12-30T12:52:37.113Z,4.80
2017-12-30T12:55:04.644Z,6.77
2017-12-30T12:57:32.144Z,2.03
2017-12-30T13:00:00.570Z,3.00
2017-12-30T13:02:28.095Z,5.40
2017-12-30T13:04:55.599Z,2.63
2017-12-30T13:07:23.127Z,2.63
2017-12-30T13:09:50.636Z,5.33
2017-12-30T13:12:18.163Z,1.80
2017-12-30T13:14:45.667Z,4.13
2017-12-30T13:17:14.097Z,1.70
2017-12-30T13:19:41.613Z,3.93
2017-12-30T13:22:09.144Z,5.07
2017-12-30T13:24:36.654Z,2.43
2017-12-30T13:27:04.183Z,3.40
2017-12-30T13:29:31.708Z,4.27
2017-12-30T13:31:59.259Z,25.83
2017-12-30T13:34:26.801Z,4.20
2017-12-30T13:36:54.328Z,5.17
2017-12-30T13:39:21.840Z,2.47
2017-12-30T13:41:49.377Z,2.10
2017-12-30T13:44:16.938Z,2.43
2017-12-30T13:46:44.463Z,1.83
2017-12-30T13:49:11.988Z,5.03
2017-12-30T13:51:40.339Z,2.93
2017-12-30T13:54:07.983Z,3.23
2017-12-30T13:56:35.496Z,4.47
2017-12-30T13:59:03.845Z,6.23
2017-12-30T14:01:31.405Z,3.97
2017-12-30T14:03:58.904Z,7.93
2017-12-30T14:06:39.916Z,2.50
2017-12-30T14:09:07.453Z,4.07
2017-12-30T14:11:35.011Z,6.13
2017-12-30T14:14:02.539Z,7.87
2017-12-30T14:16:35.818Z,5.00
2017-12-30T14:19:04.118Z,4.97
2017-12-30T14:21:31.624Z,8.70
2017-12-30T14:23:59.152Z,4.20
2017-12-30T14:26:26.656Z,5.03
2017-12-30T14:28:54.176Z,4.73
2017-12-30T14:31:21.730Z,4.83
2017-12-30T14:33:49.253Z,9.27
2017-12-30T14:36:17.565Z,5.77
2017-12-30T14:38:45.103Z,5.43
2017-12-30T14:41:12.617Z,5.67
2017-12-30T14:43:40.186Z,7.80
2017-12-30T14:46:07.695Z,9.47
2017-12-30T14:48:35.272Z,10.57
2017-12-30T14:51:02.776Z,7.97
2017-12-30T14:53:31.059Z,5.17
2017-12-30T14:55:59.345Z,6.40
2017-12-30T14:58:26.868Z,6.57
2017-12-30T15:00:54.412Z,8.17
2017-12-30T15:03:21.923Z,10.47
2017-12-30T15:05:49.502Z,8.73
2017-12-30T15:08:17.003Z,5.63
2017-12-30T15:10:44.538Z,15.07
2017-12-30T15:13:12.044Z,9.37
2017-12-30T15:15:40.342Z,7.27
2017-12-30T15:18:07.850Z,10.33
2017-12-30T15:20:35.417Z,7.10
2017-12-30T15:23:03.711Z,8.30
2017-12-30T15:25:31.290Z,6.40
2017-12-30T15:27:58.804Z,13.60
2017-12-30T15:30:26.335Z,9.03
2017-12-30T15:32:53.839Z,6.27
2017-12-30T15:35:22.186Z,10.60
2017-12-30T15:37:49.696Z,9.00
2017-12-30T15:40:17.280Z,12.97
2017-12-30T15:42:44.796Z,11.53
2017-12-30T15:45:12.330Z,8.57
2017-12-30T15:47:39.856Z,12.43
2017-12-30T15:50:07.429Z,6.17
2017-12-30T15:52:34.952Z,9.07
2017-12-30T15:55:02.473Z,9.47
2017-12-30T15:57:30.807Z,7.07
2017-12-30T15:59:58.353Z,9.67
2017-12-30T16:02:25.935Z,13.07
2017-12-30T16:04:53.442Z,8.33
2017-12-30T16:07:21.032Z,8.10
2017-12-30T16:09:48.543Z,7.00
2017-12-30T16:12:16.853Z,10.27
2017-12-30T16:14:44.372Z,7.80
2017-12-30T16:17:12.676Z,19.93
2017-12-30T16:19:40.195Z,10.37
2017-12-30T16:22:07.720Z,9.77
2017-12-30T16:24:35.289Z,10.90
2017-12-30T16:27:02.828Z,47.60
2017-12-30T16:29:30.359Z,12.67
2017-12-30T16:31:57.938Z,7.73
2017-12-30T16:34:25.456Z,11.17
2017-12-30T16:36:53.951Z,15.27
2017-12-30T16:39:22.227Z,16.10
2017-12-30T16:41:50.540Z,12.93
2017-12-30T16:44:18.061Z,29.60
2017-12-30T16:46:46.349Z,20.43
2017-12-30T16:49:13.938Z,12.27
2017-12-30T16:51:41.457Z,10.70
2017-12-30T16:54:09.033Z,28.53
2017-12-30T16:56:36.594Z,25.33
2017-12-30T16:59:04.148Z,28.90
2017-12-30T17:01:31.756Z,41.93
2017-12-30T17:03:59.973Z,27.93
2017-12-30T17:06:32.348Z,34.30
2017-12-30T17:08:59.907Z,31.37
2017-12-30T17:11:27.427Z,39.00
2017-12-30T17:13:55.189Z,175.20
2017-12-30T17:16:22.744Z,26.40
2017-12-30T17:18:50.331Z,29.33
2017-12-30T17:21:18.655Z,26.77
2017-12-30T17:23:46.473Z,29.47
2017-12-30T17:26:14.009Z,29.67
2017-12-30T17:28:41.610Z,34.40
2017-12-30T17:31:09.133Z,21.23
2017-12-30T17:33:36.817Z,38.23
2017-12-30T17:36:04.434Z,28.60
2017-12-30T17:38:31.968Z,16.93
2017-12-30T17:40:59.527Z,22.00
2017-12-30T17:43:27.204Z,13.30
2017-12-30T17:45:54.833Z,19.43
2017-12-30T17:48:22.408Z,11.23
2017-12-30T17:50:49.998Z,14.70
2017-12-30T17:53:17.588Z,17.27
2017-12-30T17:55:45.201Z,18.07
2017-12-30T17:58:12.781Z,12.50
2017-12-30T18:00:40.363Z,13.53
2017-12-30T18:03:08.678Z,11.23
2017-12-30T18:05:36.284Z,20.13
2017-12-30T18:08:03.983Z,12.87
2017-12-30T18:10:32.325Z,16.80
2017-12-30T18:12:59.889Z,16.97
2017-12-30T18:15:28.239Z,14.40
2017-12-30T18:17:55.811Z,13.87
2017-12-30T18:20:23.528Z,15.43
2017-12-30T18:22:51.181Z,19.13
2017-12-30T18:25:18.758Z,11.40
2017-12-30T18:27:46.317Z,13.83
2017-12-30T18:30:13.964Z,16.80
2017-12-30T18:32:41.499Z,19.03
2017-12-30T18:35:09.078Z,22.17
2017-12-30T18:37:36.667Z,25.83
2017-12-30T18:40:04.287Z,160.07
2017-12-30T18:42:31.871Z,25.40
2017-12-30T18:44:59.436Z,39.07
2017-12-30T18:47:27.151Z,19.80
2017-12-30T18:49:55.479Z,15.90
2017-12-30T18:52:23.062Z,26.07
2017-12-30T18:54:50.632Z,14.37
2017-12-30T18:57:18.255Z,18.60
2017-12-30T18:59:45.815Z,11.03
2017-12-30T19:02:13.401Z,35.83
2017-12-30T19:04:40.964Z,38.93
2017-12-30T19:07:09.310Z,18.90
2017-12-30T19:09:36.935Z,32.30
2017-12-30T19:12:04.520Z,15.40
2017-12-30T19:14:32.025Z,18.73
2017-12-30T19:17:00.379Z,31.10
2017-12-30T19:19:27.887Z,21.77
2017-12-30T19:21:55.475Z,254.53
2017-12-30T19:24:23.033Z,30.13
2017-12-30T19:26:50.564Z,50.57
2017-12-30T19:29:18.135Z,549.63
2017-12-30T19:31:45.751Z,348.70
2017-12-30T19:34:13.311Z,70.97
2017-12-30T19:36:40.887Z,34.13
2017-12-30T19:39:09.212Z,17.27
2017-12-30T19:41:36.786Z,23.97
2017-12-30T19:44:04.388Z,23.33
2017-12-30T19:46:31.958Z,52.43
2017-12-30T19:48:59.644Z,91.17
2017-12-30T19:51:27.223Z,25.67
2017-12-30T19:53:54.816Z,18.93
2017-12-30T19:56:23.207Z,20.03
2017-12-30T19:58:51.579Z,106.97
2017-12-30T20:01:19.153Z,22.70
2017-12-30T20:03:46.744Z,15.47
2017-12-30T20:06:14.305Z,14.60
2017-12-30T20:08:41.893Z,18.43
2017-12-30T20:11:09.471Z,36.27
2017-12-30T20:13:37.824Z,125.53
2017-12-30T20:16:05.379Z,59.73
2017-12-30T20:18:33.016Z,19.87
2017-12-30T20:21:00.615Z,212.80
2017-12-30T20:23:28.207Z,213.63
2017-12-30T20:25:55.766Z,29.43
2017-12-30T20:28:23.349Z,26.70
2017-12-30T20:30:50.920Z,30.80
2017-12-30T20:33:18.522Z,24.53
2017-12-30T20:35:46.894Z,207.03
2017-12-30T20:38:15.239Z,32.07
2017-12-30T20:40:42.834Z,29.40
2017-12-30T20:43:10.408Z,47.63
2017-12-30T20:45:38.021Z,55.43
2017-12-30T20:48:05.604Z,288.30
2017-12-30T20:50:33.969Z,72.17
2017-12-30T20:53:01.797Z,715.40
2017-12-30T20:55:29.548Z,250.27
2017-12-30T20:57:57.158Z,43.13
2017-12-30T21:00:24.760Z,322.10
2017-12-30T21:02:52.336Z,542.10
2017-12-30T21:05:20.701Z,366.60
2017-12-30T21:07:48.279Z,708.53
2017-12-30T21:10:15.879Z,1029.03
2017-12-30T21:12:43.527Z,670.80
2017-12-30T21:15:11.124Z,610.50
2017-12-30T21:17:39.491Z,799.73
2017-12-30T21:20:07.842Z,360.93
2017-12-30T21:22:35.408Z,237.07
2017-12-30T21:25:03.008Z,952.03
2017-12-30T21:27:31.034Z,876.20
2017-12-30T21:29:58.641Z,704.33
2017-12-30T21:32:26.212Z,955.53
2017-12-30T21:34:53.787Z,680.17
2017-12-30T21:37:21.388Z,775.17
2017-12-30T21:39:49.734Z,514.37
2017-12-30T21:42:17.331Z,514.23
2017-12-30T21:44:45.675Z,676.70
2017-12-30T21:47:13.267Z,607.10
2017-12-30T21:49:41.602Z,555.43
2017-12-30T21:52:09.188Z,416.53
2017-12-30T21:54:36.805Z,367.37
2017-12-30T21:57:04.401Z,326.30
2017-12-30T21:59:31.976Z,606.93
2017-12-30T22:02:00.336Z,462.77
2017-12-30T22:04:27.910Z,646.37
2017-12-30T22:06:55.524Z,293.57
2017-12-30T22:09:23.236Z,491.37
2017-12-30T22:11:50.946Z,354.13
2017-12-30T22:14:18.574Z,306.03
2017-12-30T22:16:46.278Z,352.93
2017-12-30T22:19:13.903Z,187.07
2017-12-30T22:21:41.719Z,231.00
2017-12-30T22:24:09.367Z,361.27
2017-12-30T22:26:37.036Z,452.00
2017-12-30T22:29:04.724Z,135.73
2017-12-30T22:31:33.098Z,383.07
2017-12-30T22:34:00.740Z,307.57
2017-12-30T22:36:28.307Z,104.50
2017-12-30T22:38:55.916Z,310.90
2017-12-30T22:41:23.522Z,587.43
2017-12-30T22:43:51.186Z,444.13
2017-12-30T22:46:18.763Z,437.17
2017-12-30T22:48:47.127Z,573.00
2017-12-30T22:51:14.704Z,260.97
2017-12-30T22:53:43.200Z,597.20
2017-12-30T22:56:10.776Z,569.07
2017-12-30T22:58:38.372Z,571.07
2017-12-30T23:01:08.814Z,799.80
2017-12-30T23:03:36.417Z,483.97
2017-12-30T23:06:04.085Z,146.00
2017-12-30T23:08:31.736Z,242.20
2017-12-30T23:10:59.321Z,443.63
2017-12-30T23:13:26.986Z,234.70
2017-12-30T23:15:54.654Z,484.50
2017-12-30T23:18:22.255Z,447.67
2017-12-30T23:20:50.604Z,53.00
2017-12-30T23:23:18.245Z,295.50
2017-12-30T23:25:45.821Z,419.30
2017-12-30T23:28:13.424Z,316.43
2017-12-30T23:30:40.985Z,187.73
2017-12-30T23:33:09.407Z,307.20
2017-12-30T23:35:37.016Z,629.73
2017-12-30T23:38:05.363Z,34.33
2017-12-30T23:40:33.740Z,45.60
2017-12-30T23:43:01.320Z,250.93
2017-12-30T23:45:29.666Z,79.70
2017-12-30T23:47:57.450Z,24.37
2017-12-30T23:50:25.119Z,26.83
2017-12-30T23:52:52.682Z,20.07
2017-12-30T23:55:21.042Z,16.37
2017-12-30T23:57:48.611Z,10.10
